sensor_id;sensor_type;location;lat;lon;timestamp;P1;durP1;ratioP1;P2;durP2;ratioP2
52015;SDS011;38032;53.326;6.472;2022-12-11T00:01:42;33.63;;;15.15;;
52015;SDS011;38032;53.326;6.472;2022-12-11T00:04:08;32.67;;;14.73;;
52015;SDS011;38032;53.326;6.472;2022-12-11T00:06:35;33.15;;;15.00;;
52015;SDS011;38032;53.326;6.472;2022-12-11T00:09:00;34.47;;;14.80;;
52015;SDS011;38032;53.326;6.472;2022-12-11T00:11:26;33.45;;;14.25;;
52015;SDS011;38032;53.326;6.472;2022-12-11T00:13:52;34.65;;;14.65;;
52015;SDS011;38032;53.326;6.472;2022-12-11T00:16:18;39.75;;;16.08;;
52015;SDS011;38032;53.326;6.472;2022-12-11T00:18:44;34.65;;;15.18;;
52015;SDS011;38032;53.326;6.472;2022-12-11T00:21:11;33.50;;;13.60;;
52015;SDS011;38032;53.326;6.472;2022-12-11T00:23:39;35.60;;;15.20;;
52015;SDS011;38032;53.326;6.472;2022-12-11T00:26:07;28.83;;;14.27;;
52015;SDS011;38032;53.326;6.472;2022-12-11T00:28:36;28.70;;;13.30;;
52015;SDS011;38032;53.326;6.472;2022-12-11T00:31:04;35.22;;;14.77;;
52015;SDS011;38032;53.326;6.472;2022-12-11T00:33:31;34.97;;;15.23;;
52015;SDS011;38032;53.326;6.472;2022-12-11T00:35:57;39.92;;;15.95;;
52015;SDS011;38032;53.326;6.472;2022-12-11T00:38:23;35.35;;;14.23;;
52015;SDS011;38032;53.326;6.472;2022-12-11T00:40:49;31.17;;;14.18;;
52015;SDS011;38032;53.326;6.472;2022-12-11T00:43:15;32.92;;;14.27;;
52015;SDS011;38032;53.326;6.472;2022-12-11T00:45:42;32.75;;;14.82;;
52015;SDS011;38032;53.326;6.472;2022-12-11T00:48:09;38.50;;;15.77;;
52015;SDS011;38032;53.326;6.472;2022-12-11T00:50:36;34.08;;;14.65;;
52015;SDS011;38032;53.326;6.472;2022-12-11T00:53:03;33.95;;;14.65;;
52015;SDS011;38032;53.326;6.472;2022-12-11T00:55:30;37.60;;;15.07;;
52015;SDS011;38032;53.326;6.472;2022-12-11T00:58:00;36.33;;;15.27;;
52015;SDS011;38032;53.326;6.472;2022-12-11T01:00:26;35.83;;;13.45;;
52015;SDS011;38032;53.326;6.472;2022-12-11T01:02:52;34.42;;;13.85;;
52015;SDS011;38032;53.326;6.472;2022-12-11T01:05:18;33.85;;;13.45;;
52015;SDS011;38032;53.326;6.472;2022-12-11T01:07:43;36.90;;;15.10;;
52015;SDS011;38032;53.326;6.472;2022-12-11T01:10:11;36.17;;;13.82;;
52015;SDS011;38032;53.326;6.472;2022-12-11T01:15:16;33.95;;;13.57;;
52015;SDS011;38032;53.326;6.472;2022-12-11T01:17:43;33.60;;;13.45;;
52015;SDS011;38032;53.326;6.472;2022-12-11T01:20:09;35.47;;;14.80;;
52015;SDS011;38032;53.326;6.472;2022-12-11T01:22:35;32.47;;;13.05;;
52015;SDS011;38032;53.326;6.472;2022-12-11T01:25:01;31.67;;;13.52;;
52015;SDS011;38032;53.326;6.472;2022-12-11T01:27:27;32.05;;;13.10;;
52015;SDS011;38032;53.326;6.472;2022-12-11T01:29:53;33.83;;;13.38;;
52015;SDS011;38032;53.326;6.472;2022-12-11T01:32:19;30.80;;;12.82;;
52015;SDS011;38032;53.326;6.472;2022-12-11T01:34:45;48.30;;;15.13;;
52015;SDS011;38032;53.326;6.472;2022-12-11T01:37:11;36.47;;;13.82;;
52015;SDS011;38032;53.326;6.472;2022-12-11T01:39:37;33.50;;;13.13;;
52015;SDS011;38032;53.326;6.472;2022-12-11T01:42:03;31.05;;;13.43;;
52015;SDS011;38032;53.326;6.472;2022-12-11T01:46:56;32.65;;;12.95;;
52015;SDS011;38032;53.326;6.472;2022-12-11T01:49:23;30.20;;;12.73;;
52015;SDS011;38032;53.326;6.472;2022-12-11T01:51:54;31.05;;;12.27;;
52015;SDS011;38032;53.326;6.472;2022-12-11T01:54:23;30.95;;;12.45;;
52015;SDS011;38032;53.326;6.472;2022-12-11T01:56:52;31.13;;;12.35;;
52015;SDS011;38032;53.326;6.472;2022-12-11T01:59:23;28.08;;;12.07;;
52015;SDS011;38032;53.326;6.472;2022-12-11T02:01:54;29.80;;;12.60;;
52015;SDS011;38032;53.326;6.472;2022-12-11T02:04:23;32.10;;;12.82;;
52015;SDS011;38032;53.326;6.472;2022-12-11T02:06:54;25.52;;;11.20;;
52015;SDS011;38032;53.326;6.472;2022-12-11T02:09:21;30.55;;;11.98;;
52015;SDS011;38032;53.326;6.472;2022-12-11T02:14:25;26.67;;;10.90;;
52015;SDS011;38032;53.326;6.472;2022-12-11T02:17:05;31.80;;;12.35;;
52015;SDS011;38032;53.326;6.472;2022-12-11T02:19:44;27.88;;;11.43;;
52015;SDS011;38032;53.326;6.472;2022-12-11T02:22:12;28.00;;;13.13;;
52015;SDS011;38032;53.326;6.472;2022-12-11T02:32:34;29.33;;;12.30;;
52015;SDS011;38032;53.326;6.472;2022-12-11T02:37:40;33.75;;;13.57;;
52015;SDS011;38032;53.326;6.472;2022-12-11T02:40:12;32.90;;;13.98;;
52015;SDS011;38032;53.326;6.472;2022-12-11T02:42:41;34.10;;;13.18;;
52015;SDS011;38032;53.326;6.472;2022-12-11T02:45:12;31.63;;;13.32;;
52015;SDS011;38032;53.326;6.472;2022-12-11T02:47:39;34.88;;;14.15;;
52015;SDS011;38032;53.326;6.472;2022-12-11T02:50:08;37.78;;;14.50;;
52015;SDS011;38032;53.326;6.472;2022-12-11T02:52:38;35.83;;;13.77;;
52015;SDS011;38032;53.326;6.472;2022-12-11T02:55:06;38.60;;;15.50;;
52015;SDS011;38032;53.326;6.472;2022-12-11T02:57:37;41.75;;;15.93;;
52015;SDS011;38032;53.326;6.472;2022-12-11T03:00:10;37.90;;;15.23;;
52015;SDS011;38032;53.326;6.472;2022-12-11T03:02:37;41.55;;;15.50;;
52015;SDS011;38032;53.326;6.472;2022-12-11T03:05:05;40.47;;;15.05;;
52015;SDS011;38032;53.326;6.472;2022-12-11T03:07:33;37.00;;;15.68;;
52015;SDS011;38032;53.326;6.472;2022-12-11T03:10:01;39.80;;;14.88;;
52015;SDS011;38032;53.326;6.472;2022-12-11T03:12:29;42.40;;;15.00;;
52015;SDS011;38032;53.326;6.472;2022-12-11T03:14:57;40.88;;;15.68;;
52015;SDS011;38032;53.326;6.472;2022-12-11T03:17:29;37.33;;;15.43;;
52015;SDS011;38032;53.326;6.472;2022-12-11T03:20:06;39.45;;;14.85;;
52015;SDS011;38032;53.326;6.472;2022-12-11T03:22:42;48.92;;;16.67;;
52015;SDS011;38032;53.326;6.472;2022-12-11T03:25:16;41.60;;;15.65;;
52015;SDS011;38032;53.326;6.472;2022-12-11T03:27:47;39.05;;;15.55;;
52015;SDS011;38032;53.326;6.472;2022-12-11T03:30:16;46.58;;;17.42;;
52015;SDS011;38032;53.326;6.472;2022-12-11T03:35:22;44.08;;;17.13;;
52015;SDS011;38032;53.326;6.472;2022-12-11T03:37:52;41.95;;;17.00;;
52015;SDS011;38032;53.326;6.472;2022-12-11T03:40:21;40.13;;;16.75;;
52015;SDS011;38032;53.326;6.472;2022-12-11T03:42:50;40.85;;;14.85;;
52015;SDS011;38032;53.326;6.472;2022-12-11T03:45:18;40.17;;;15.57;;
52015;SDS011;38032;53.326;6.472;2022-12-11T03:47:46;36.40;;;14.95;;
52015;SDS011;38032;53.326;6.472;2022-12-11T03:50:14;40.42;;;16.20;;
52015;SDS011;38032;53.326;6.472;2022-12-11T03:52:43;40.42;;;15.98;;
52015;SDS011;38032;53.326;6.472;2022-12-11T03:55:11;38.15;;;15.60;;
52015;SDS011;38032;53.326;6.472;2022-12-11T03:57:39;41.88;;;15.05;;
52015;SDS011;38032;53.326;6.472;2022-12-11T04:00:06;35.05;;;15.18;;
52015;SDS011;38032;53.326;6.472;2022-12-11T04:02:35;44.05;;;16.10;;
52015;SDS011;38032;53.326;6.472;2022-12-11T04:05:01;39.30;;;15.60;;
52015;SDS011;38032;53.326;6.472;2022-12-11T04:07:28;41.00;;;15.45;;
52015;SDS011;38032;53.326;6.472;2022-12-11T04:09:55;44.13;;;15.85;;
52015;SDS011;38032;53.326;6.472;2022-12-11T04:12:21;41.78;;;16.48;;
52015;SDS011;38032;53.326;6.472;2022-12-11T04:14:47;36.60;;;14.43;;
52015;SDS011;38032;53.326;6.472;2022-12-11T04:17:28;44.30;;;15.90;;
52015;SDS011;38032;53.326;6.472;2022-12-11T04:20:14;38.70;;;15.68;;
52015;SDS011;38032;53.326;6.472;2022-12-11T04:23:02;39.35;;;14.73;;
52015;SDS011;38032;53.326;6.472;2022-12-11T04:25:48;42.40;;;16.08;;
52015;SDS011;38032;53.326;6.472;2022-12-11T04:28:14;39.72;;;14.52;;
52015;SDS011;38032;53.326;6.472;2022-12-11T04:30:40;40.22;;;14.93;;
52015;SDS011;38032;53.326;6.472;2022-12-11T04:33:11;39.38;;;14.02;;
52015;SDS011;38032;53.326;6.472;2022-12-11T04:35:37;41.85;;;14.43;;
52015;SDS011;38032;53.326;6.472;2022-12-11T04:38:03;41.25;;;15.18;;
52015;SDS011;38032;53.326;6.472;2022-12-11T04:40:29;42.38;;;15.05;;
52015;SDS011;38032;53.326;6.472;2022-12-11T04:42:55;28.15;;;12.27;;
52015;SDS011;38032;53.326;6.472;2022-12-11T04:45:20;37.50;;;15.95;;
52015;SDS011;38032;53.326;6.472;2022-12-11T04:47:46;37.67;;;14.32;;
52015;SDS011;38032;53.326;6.472;2022-12-11T04:50:13;38.38;;;14.75;;
52015;SDS011;38032;53.326;6.472;2022-12-11T04:52:40;35.35;;;14.63;;
52015;SDS011;38032;53.326;6.472;2022-12-11T04:55:07;37.22;;;13.38;;
52015;SDS011;38032;53.326;6.472;2022-12-11T04:57:33;41.38;;;14.90;;
52015;SDS011;38032;53.326;6.472;2022-12-11T04:59:59;39.05;;;15.02;;
52015;SDS011;38032;53.326;6.472;2022-12-11T05:02:26;37.03;;;13.40;;
52015;SDS011;38032;53.326;6.472;2022-12-11T05:04:52;35.75;;;13.95;;
52015;SDS011;38032;53.326;6.472;2022-12-11T05:07:17;36.63;;;15.20;;
52015;SDS011;38032;53.326;6.472;2022-12-11T05:09:43;36.90;;;13.82;;
52015;SDS011;38032;53.326;6.472;2022-12-11T05:12:09;34.85;;;12.52;;
52015;SDS011;38032;53.326;6.472;2022-12-11T05:14:35;35.38;;;14.40;;
52015;SDS011;38032;53.326;6.472;2022-12-11T05:17:01;39.25;;;14.60;;
52015;SDS011;38032;53.326;6.472;2022-12-11T05:19:27;39.10;;;13.43;;
52015;SDS011;38032;53.326;6.472;2022-12-11T05:21:53;35.55;;;14.15;;
52015;SDS011;38032;53.326;6.472;2022-12-11T05:24:19;38.63;;;14.88;;
52015;SDS011;38032;53.326;6.472;2022-12-11T05:26:44;32.25;;;13.38;;
52015;SDS011;38032;53.326;6.472;2022-12-11T05:29:10;35.20;;;14.43;;
52015;SDS011;38032;53.326;6.472;2022-12-11T05:31:36;38.95;;;14.70;;
52015;SDS011;38032;53.326;6.472;2022-12-11T05:34:02;39.30;;;14.27;;
52015;SDS011;38032;53.326;6.472;2022-12-11T05:36:30;35.47;;;13.70;;
52015;SDS011;38032;53.326;6.472;2022-12-11T05:38:57;34.78;;;14.13;;
52015;SDS011;38032;53.326;6.472;2022-12-11T05:41:24;37.17;;;13.98;;
52015;SDS011;38032;53.326;6.472;2022-12-11T05:43:52;34.08;;;13.32;;
52015;SDS011;38032;53.326;6.472;2022-12-11T05:46:19;34.65;;;14.00;;
52015;SDS011;38032;53.326;6.472;2022-12-11T05:48:48;34.95;;;13.27;;
52015;SDS011;38032;53.326;6.472;2022-12-11T05:51:16;35.55;;;13.38;;
52015;SDS011;38032;53.326;6.472;2022-12-11T05:53:44;34.15;;;14.23;;
52015;SDS011;38032;53.326;6.472;2022-12-11T05:56:11;37.35;;;14.15;;
52015;SDS011;38032;53.326;6.472;2022-12-11T05:58:40;39.53;;;15.00;;
52015;SDS011;38032;53.326;6.472;2022-12-11T06:01:07;38.55;;;14.05;;
52015;SDS011;38032;53.326;6.472;2022-12-11T06:03:34;39.35;;;14.50;;
52015;SDS011;38032;53.326;6.472;2022-12-11T06:06:01;34.10;;;13.88;;
52015;SDS011;38032;53.326;6.472;2022-12-11T06:08:28;35.38;;;13.02;;
52015;SDS011;38032;53.326;6.472;2022-12-11T06:10:54;39.45;;;15.30;;
52015;SDS011;38032;53.326;6.472;2022-12-11T06:13:20;42.28;;;14.52;;
52015;SDS011;38032;53.326;6.472;2022-12-11T06:15:46;38.90;;;14.75;;
52015;SDS011;38032;53.326;6.472;2022-12-11T06:18:11;40.78;;;14.98;;
52015;SDS011;38032;53.326;6.472;2022-12-11T06:20:37;37.15;;;14.13;;
52015;SDS011;38032;53.326;6.472;2022-12-11T06:23:03;36.63;;;14.48;;
52015;SDS011;38032;53.326;6.472;2022-12-11T06:25:30;39.20;;;14.18;;
52015;SDS011;38032;53.326;6.472;2022-12-11T06:27:56;37.38;;;13.43;;
52015;SDS011;38032;53.326;6.472;2022-12-11T06:30:22;37.47;;;14.02;;
52015;SDS011;38032;53.326;6.472;2022-12-11T06:32:48;42.78;;;15.98;;
52015;SDS011;38032;53.326;6.472;2022-12-11T06:35:14;38.50;;;14.77;;
52015;SDS011;38032;53.326;6.472;2022-12-11T06:37:40;39.80;;;14.40;;
52015;SDS011;38032;53.326;6.472;2022-12-11T06:40:07;34.67;;;14.80;;
52015;SDS011;38032;53.326;6.472;2022-12-11T06:42:34;38.55;;;14.80;;
52015;SDS011;38032;53.326;6.472;2022-12-11T06:45:00;39.28;;;15.23;;
52015;SDS011;38032;53.326;6.472;2022-12-11T06:47:26;33.10;;;14.70;;
52015;SDS011;38032;53.326;6.472;2022-12-11T06:49:53;38.70;;;15.05;;
52015;SDS011;38032;53.326;6.472;2022-12-11T06:52:20;41.05;;;15.68;;
52015;SDS011;38032;53.326;6.472;2022-12-11T06:54:46;40.38;;;15.27;;
52015;SDS011;38032;53.326;6.472;2022-12-11T06:57:12;37.80;;;15.65;;
52015;SDS011;38032;53.326;6.472;2022-12-11T06:59:38;34.42;;;14.35;;
52015;SDS011;38032;53.326;6.472;2022-12-11T07:02:04;32.53;;;14.27;;
52015;SDS011;38032;53.326;6.472;2022-12-11T07:04:30;36.92;;;15.65;;
52015;SDS011;38032;53.326;6.472;2022-12-11T07:06:56;34.30;;;14.65;;
52015;SDS011;38032;53.326;6.472;2022-12-11T07:09:22;32.15;;;14.13;;
52015;SDS011;38032;53.326;6.472;2022-12-11T07:11:49;32.42;;;13.45;;
52015;SDS011;38032;53.326;6.472;2022-12-11T07:14:15;32.08;;;13.70;;
52015;SDS011;38032;53.326;6.472;2022-12-11T07:16:41;36.38;;;13.82;;
52015;SDS011;38032;53.326;6.472;2022-12-11T07:19:07;33.20;;;13.68;;
52015;SDS011;38032;53.326;6.472;2022-12-11T07:21:33;30.80;;;13.20;;
52015;SDS011;38032;53.326;6.472;2022-12-11T07:23:59;37.85;;;13.60;;
52015;SDS011;38032;53.326;6.472;2022-12-11T07:26:25;31.85;;;14.65;;
52015;SDS011;38032;53.326;6.472;2022-12-11T07:28:55;35.97;;;13.30;;
52015;SDS011;38032;53.326;6.472;2022-12-11T07:31:22;32.13;;;13.35;;
52015;SDS011;38032;53.326;6.472;2022-12-11T07:33:53;40.58;;;14.68;;
52015;SDS011;38032;53.326;6.472;2022-12-11T07:36:20;35.90;;;13.82;;
52015;SDS011;38032;53.326;6.472;2022-12-11T07:38:46;35.85;;;13.65;;
52015;SDS011;38032;53.326;6.472;2022-12-11T07:41:13;32.55;;;13.18;;
52015;SDS011;38032;53.326;6.472;2022-12-11T07:43:40;34.75;;;13.82;;
52015;SDS011;38032;53.326;6.472;2022-12-11T07:46:09;39.47;;;13.43;;
52015;SDS011;38032;53.326;6.472;2022-12-11T07:48:37;38.30;;;14.82;;
52015;SDS011;38032;53.326;6.472;2022-12-11T07:56:05;33.50;;;13.60;;
52015;SDS011;38032;53.326;6.472;2022-12-11T07:58:32;36.55;;;14.10;;
52015;SDS011;38032;53.326;6.472;2022-12-11T08:00:58;37.47;;;14.13;;
52015;SDS011;38032;53.326;6.472;2022-12-11T08:03:24;33.92;;;13.95;;
52015;SDS011;38032;53.326;6.472;2022-12-11T08:05:50;35.88;;;14.05;;
52015;SDS011;38032;53.326;6.472;2022-12-11T08:08:17;34.28;;;13.70;;
52015;SDS011;38032;53.326;6.472;2022-12-11T08:10:44;39.17;;;14.63;;
52015;SDS011;38032;53.326;6.472;2022-12-11T08:13:10;36.40;;;13.38;;
52015;SDS011;38032;53.326;6.472;2022-12-11T08:15:36;37.10;;;14.02;;
52015;SDS011;38032;53.326;6.472;2022-12-11T08:18:02;34.20;;;14.02;;
52015;SDS011;38032;53.326;6.472;2022-12-11T08:20:29;39.10;;;13.93;;
52015;SDS011;38032;53.326;6.472;2022-12-11T08:22:55;35.95;;;13.90;;
52015;SDS011;38032;53.326;6.472;2022-12-11T08:25:21;36.03;;;14.02;;
52015;SDS011;38032;53.326;6.472;2022-12-11T08:27:48;33.88;;;13.98;;
52015;SDS011;38032;53.326;6.472;2022-12-11T08:30:13;30.38;;;13.52;;
52015;SDS011;38032;53.326;6.472;2022-12-11T08:32:40;31.25;;;13.23;;
52015;SDS011;38032;53.326;6.472;2022-12-11T08:35:06;32.88;;;14.00;;
52015;SDS011;38032;53.326;6.472;2022-12-11T08:37:32;34.70;;;13.18;;
52015;SDS011;38032;53.326;6.472;2022-12-11T08:39:58;32.30;;;13.70;;
52015;SDS011;38032;53.326;6.472;2022-12-11T08:42:24;33.28;;;14.30;;
52015;SDS011;38032;53.326;6.472;2022-12-11T08:44:50;32.85;;;14.23;;
52015;SDS011;38032;53.326;6.472;2022-12-11T08:47:16;34.80;;;14.13;;
52015;SDS011;38032;53.326;6.472;2022-12-11T08:49:42;36.75;;;14.82;;
52015;SDS011;38032;53.326;6.472;2022-12-11T08:52:08;29.90;;;12.60;;
52015;SDS011;38032;53.326;6.472;2022-12-11T08:54:35;35.03;;;13.95;;
52015;SDS011;38032;53.326;6.472;2022-12-11T08:57:02;34.50;;;13.63;;
52015;SDS011;38032;53.326;6.472;2022-12-11T08:59:28;35.80;;;14.25;;
52015;SDS011;38032;53.326;6.472;2022-12-11T09:01:54;32.83;;;13.90;;
52015;SDS011;38032;53.326;6.472;2022-12-11T09:04:21;31.05;;;13.48;;
52015;SDS011;38032;53.326;6.472;2022-12-11T09:06:47;37.45;;;14.15;;
52015;SDS011;38032;53.326;6.472;2022-12-11T09:09:13;34.55;;;13.88;;
52015;SDS011;38032;53.326;6.472;2022-12-11T09:11:39;35.67;;;13.85;;
52015;SDS011;38032;53.326;6.472;2022-12-11T09:14:06;32.13;;;13.80;;
52015;SDS011;38032;53.326;6.472;2022-12-11T09:16:32;29.25;;;13.15;;
52015;SDS011;38032;53.326;6.472;2022-12-11T09:18:58;38.15;;;14.70;;
52015;SDS011;38032;53.326;6.472;2022-12-11T09:21:26;35.67;;;13.65;;
52015;SDS011;38032;53.326;6.472;2022-12-11T09:23:54;30.65;;;13.40;;
52015;SDS011;38032;53.326;6.472;2022-12-11T09:26:21;33.58;;;14.52;;
52015;SDS011;38032;53.326;6.472;2022-12-11T09:28:48;34.88;;;13.50;;
52015;SDS011;38032;53.326;6.472;2022-12-11T09:31:19;34.35;;;14.65;;
52015;SDS011;38032;53.326;6.472;2022-12-11T09:33:48;37.70;;;14.13;;
52015;SDS011;38032;53.326;6.472;2022-12-11T09:36:16;34.85;;;13.95;;
52015;SDS011;38032;53.326;6.472;2022-12-11T09:38:42;31.45;;;13.48;;
52015;SDS011;38032;53.326;6.472;2022-12-11T09:43:48;38.50;;;15.43;;
52015;SDS011;38032;53.326;6.472;2022-12-11T09:46:16;33.08;;;13.73;;
52015;SDS011;38032;53.326;6.472;2022-12-11T09:48:44;35.17;;;14.38;;
52015;SDS011;38032;53.326;6.472;2022-12-11T09:51:24;34.15;;;14.02;;
52015;SDS011;38032;53.326;6.472;2022-12-11T09:54:04;34.72;;;14.68;;
52015;SDS011;38032;53.326;6.472;2022-12-11T09:56:32;39.47;;;15.55;;
52015;SDS011;38032;53.326;6.472;2022-12-11T10:02:00;35.58;;;14.57;;
52015;SDS011;38032;53.326;6.472;2022-12-11T10:04:49;35.70;;;14.32;;
52015;SDS011;38032;53.326;6.472;2022-12-11T10:10:00;34.95;;;14.27;;
52015;SDS011;38032;53.326;6.472;2022-12-11T10:15:19;34.63;;;14.77;;
52015;SDS011;38032;53.326;6.472;2022-12-11T10:18:01;36.75;;;15.35;;
52015;SDS011;38032;53.326;6.472;2022-12-11T10:20:34;37.53;;;14.93;;
52015;SDS011;38032;53.326;6.472;2022-12-11T10:23:05;40.92;;;15.48;;
52015;SDS011;38032;53.326;6.472;2022-12-11T10:25:36;36.63;;;15.98;;
52015;SDS011;38032;53.326;6.472;2022-12-11T10:28:13;36.10;;;15.10;;
52015;SDS011;38032;53.326;6.472;2022-12-11T10:30:47;39.58;;;15.93;;
52015;SDS011;38032;53.326;6.472;2022-12-11T10:33:33;38.42;;;15.43;;
52015;SDS011;38032;53.326;6.472;2022-12-11T10:36:19;44.35;;;15.57;;
52015;SDS011;38032;53.326;6.472;2022-12-11T10:38:51;40.45;;;16.42;;
52015;SDS011;38032;53.326;6.472;2022-12-11T10:41:19;41.05;;;16.17;;
52015;SDS011;38032;53.326;6.472;2022-12-11T10:43:50;44.50;;;17.23;;
52015;SDS011;38032;53.326;6.472;2022-12-11T10:46:19;40.97;;;16.67;;
52015;SDS011;38032;53.326;6.472;2022-12-11T10:48:50;42.50;;;17.55;;
52015;SDS011;38032;53.326;6.472;2022-12-11T10:51:21;40.95;;;16.13;;
52015;SDS011;38032;53.326;6.472;2022-12-11T10:53:50;34.95;;;14.73;;
52015;SDS011;38032;53.326;6.472;2022-12-11T10:56:28;38.70;;;16.50;;
52015;SDS011;38032;53.326;6.472;2022-12-11T10:58:56;39.20;;;16.23;;
52015;SDS011;38032;53.326;6.472;2022-12-11T11:01:23;44.13;;;17.40;;
52015;SDS011;38032;53.326;6.472;2022-12-11T11:04:00;38.28;;;16.45;;
52015;SDS011;38032;53.326;6.472;2022-12-11T11:06:30;38.95;;;16.52;;
52015;SDS011;38032;53.326;6.472;2022-12-11T11:08:58;43.45;;;16.40;;
52015;SDS011;38032;53.326;6.472;2022-12-11T11:11:27;38.53;;;16.67;;
52015;SDS011;38032;53.326;6.472;2022-12-11T11:14:04;35.65;;;15.07;;
52015;SDS011;38032;53.326;6.472;2022-12-11T11:16:30;39.53;;;16.05;;
52015;SDS011;38032;53.326;6.472;2022-12-11T11:18:56;37.17;;;15.50;;
52015;SDS011;38032;53.326;6.472;2022-12-11T11:21:23;39.72;;;15.82;;
52015;SDS011;38032;53.326;6.472;2022-12-11T11:23:51;37.92;;;15.73;;
52015;SDS011;38032;53.326;6.472;2022-12-11T11:26:18;40.03;;;15.25;;
52015;SDS011;38032;53.326;6.472;2022-12-11T11:28:47;44.33;;;16.48;;
52015;SDS011;38032;53.326;6.472;2022-12-11T11:31:14;37.22;;;15.13;;
52015;SDS011;38032;53.326;6.472;2022-12-11T11:33:48;35.85;;;15.70;;
52015;SDS011;38032;53.326;6.472;2022-12-11T11:36:23;40.03;;;16.35;;
52015;SDS011;38032;53.326;6.472;2022-12-11T11:41:34;38.75;;;14.77;;
52015;SDS011;38032;53.326;6.472;2022-12-11T11:44:09;39.20;;;15.95;;
52015;SDS011;38032;53.326;6.472;2022-12-11T11:46:41;40.03;;;16.10;;
52015;SDS011;38032;53.326;6.472;2022-12-11T11:51:46;35.35;;;16.27;;
52015;SDS011;38032;53.326;6.472;2022-12-11T11:57:00;34.67;;;15.45;;
52015;SDS011;38032;53.326;6.472;2022-12-11T11:59:38;44.55;;;16.92;;
52015;SDS011;38032;53.326;6.472;2022-12-11T12:02:12;40.78;;;17.10;;
52015;SDS011;38032;53.326;6.472;2022-12-11T12:04:40;40.42;;;16.83;;
52015;SDS011;38032;53.326;6.472;2022-12-11T12:15:11;35.35;;;15.20;;
52015;SDS011;38032;53.326;6.472;2022-12-11T12:17:54;38.65;;;17.23;;
52015;SDS011;38032;53.326;6.472;2022-12-11T12:20:27;37.13;;;15.30;;
52015;SDS011;38032;53.326;6.472;2022-12-11T12:23:10;38.35;;;16.25;;
52015;SDS011;38032;53.326;6.472;2022-12-11T12:25:51;39.38;;;15.68;;
52015;SDS011;38032;53.326;6.472;2022-12-11T12:28:59;36.80;;;16.35;;
52015;SDS011;38032;53.326;6.472;2022-12-11T12:31:35;38.38;;;16.80;;
52015;SDS011;38032;53.326;6.472;2022-12-11T12:39:51;39.45;;;17.25;;
52015;SDS011;38032;53.326;6.472;2022-12-11T12:42:38;37.58;;;18.67;;
52015;SDS011;38032;53.326;6.472;2022-12-11T12:45:24;39.60;;;16.08;;
52015;SDS011;38032;53.326;6.472;2022-12-11T12:47:56;44.22;;;20.85;;
52015;SDS011;38032;53.326;6.472;2022-12-11T12:50:23;43.03;;;20.63;;
52015;SDS011;38032;53.326;6.472;2022-12-11T12:52:51;38.40;;;16.77;;
52015;SDS011;38032;53.326;6.472;2022-12-11T12:55:22;33.63;;;15.45;;
52015;SDS011;38032;53.326;6.472;2022-12-11T12:57:52;54.00;;;23.95;;
52015;SDS011;38032;53.326;6.472;2022-12-11T13:03:11;38.35;;;16.25;;
52015;SDS011;38032;53.326;6.472;2022-12-11T13:05:39;36.15;;;15.93;;
52015;SDS011;38032;53.326;6.472;2022-12-11T13:08:08;40.05;;;17.73;;
52015;SDS011;38032;53.326;6.472;2022-12-11T13:10:36;49.13;;;21.45;;
52015;SDS011;38032;53.326;6.472;2022-12-11T13:13:05;36.70;;;16.00;;
52015;SDS011;38032;53.326;6.472;2022-12-11T13:16:04;36.17;;;15.93;;
52015;SDS011;38032;53.326;6.472;2022-12-11T13:18:39;37.95;;;16.73;;
52015;SDS011;38032;53.326;6.472;2022-12-11T13:21:24;40.63;;;20.58;;
52015;SDS011;38032;53.326;6.472;2022-12-11T13:24:11;32.85;;;15.60;;
52015;SDS011;38032;53.326;6.472;2022-12-11T13:26:38;33.75;;;14.77;;
52015;SDS011;38032;53.326;6.472;2022-12-11T13:29:05;38.30;;;16.67;;
52015;SDS011;38032;53.326;6.472;2022-12-11T13:31:55;36.53;;;15.73;;
52015;SDS011;38032;53.326;6.472;2022-12-11T13:34:23;33.53;;;15.68;;
52015;SDS011;38032;53.326;6.472;2022-12-11T13:36:52;33.15;;;15.43;;
52015;SDS011;38032;53.326;6.472;2022-12-11T13:39:21;38.63;;;16.65;;
52015;SDS011;38032;53.326;6.472;2022-12-11T13:41:51;40.92;;;18.65;;
52015;SDS011;38032;53.326;6.472;2022-12-11T13:44:23;35.72;;;14.82;;
52015;SDS011;38032;53.326;6.472;2022-12-11T13:46:55;36.22;;;15.57;;
52015;SDS011;38032;53.326;6.472;2022-12-11T13:49:25;33.88;;;14.98;;
52015;SDS011;38032;53.326;6.472;2022-12-11T13:51:55;38.88;;;16.17;;
52015;SDS011;38032;53.326;6.472;2022-12-11T13:54:22;44.80;;;21.02;;
52015;SDS011;38032;53.326;6.472;2022-12-11T13:56:53;36.42;;;16.38;;
52015;SDS011;38032;53.326;6.472;2022-12-11T13:59:23;43.95;;;21.15;;
52015;SDS011;38032;53.326;6.472;2022-12-11T14:01:52;48.63;;;21.65;;
52015;SDS011;38032;53.326;6.472;2022-12-11T14:04:21;37.03;;;15.65;;
52015;SDS011;38032;53.326;6.472;2022-12-11T14:06:48;35.13;;;16.48;;
52015;SDS011;38032;53.326;6.472;2022-12-11T14:09:15;44.25;;;18.45;;
52015;SDS011;38032;53.326;6.472;2022-12-11T14:11:44;37.17;;;15.50;;
52015;SDS011;38032;53.326;6.472;2022-12-11T14:14:17;39.05;;;15.55;;
52015;SDS011;38032;53.326;6.472;2022-12-11T14:16:48;37.53;;;16.92;;
52015;SDS011;38032;53.326;6.472;2022-12-11T14:19:17;34.38;;;15.93;;
52015;SDS011;38032;53.326;6.472;2022-12-11T14:21:55;37.50;;;15.23;;
52015;SDS011;38032;53.326;6.472;2022-12-11T14:24:25;38.72;;;16.63;;
52015;SDS011;38032;53.326;6.472;2022-12-11T14:26:51;39.20;;;16.67;;
52015;SDS011;38032;53.326;6.472;2022-12-11T14:29:22;34.10;;;15.27;;
52015;SDS011;38032;53.326;6.472;2022-12-11T14:31:50;36.83;;;16.83;;
52015;SDS011;38032;53.326;6.472;2022-12-11T14:34:20;33.22;;;15.65;;
52015;SDS011;38032;53.326;6.472;2022-12-11T14:36:55;35.60;;;15.90;;
52015;SDS011;38032;53.326;6.472;2022-12-11T14:39:25;35.60;;;17.23;;
52015;SDS011;38032;53.326;6.472;2022-12-11T14:41:59;41.08;;;19.88;;
52015;SDS011;38032;53.326;6.472;2022-12-11T14:44:34;39.78;;;18.15;;
52015;SDS011;38032;53.326;6.472;2022-12-11T14:47:11;39.97;;;16.35;;
52015;SDS011;38032;53.326;6.472;2022-12-11T14:49:45;42.83;;;16.35;;
52015;SDS011;38032;53.326;6.472;2022-12-11T14:52:37;38.10;;;17.15;;
52015;SDS011;38032;53.326;6.472;2022-12-11T14:55:08;33.95;;;16.27;;
52015;SDS011;38032;53.326;6.472;2022-12-11T14:57:41;34.95;;;15.45;;
52015;SDS011;38032;53.326;6.472;2022-12-11T15:00:25;37.95;;;18.08;;
52015;SDS011;38032;53.326;6.472;2022-12-11T15:02:59;39.22;;;17.15;;
52015;SDS011;38032;53.326;6.472;2022-12-11T15:05:29;35.80;;;16.52;;
52015;SDS011;38032;53.326;6.472;2022-12-11T15:08:14;39.90;;;17.05;;
52015;SDS011;38032;53.326;6.472;2022-12-11T15:10:56;36.80;;;16.52;;
52015;SDS011;38032;53.326;6.472;2022-12-11T15:13:26;42.20;;;18.50;;
52015;SDS011;38032;53.326;6.472;2022-12-11T15:15:53;37.17;;;17.38;;
52015;SDS011;38032;53.326;6.472;2022-12-11T15:18:22;40.78;;;17.83;;
52015;SDS011;38032;53.326;6.472;2022-12-11T15:20:51;39.00;;;17.83;;
52015;SDS011;38032;53.326;6.472;2022-12-11T15:23:20;38.83;;;16.83;;
52015;SDS011;38032;53.326;6.472;2022-12-11T15:25:50;40.83;;;17.73;;
52015;SDS011;38032;53.326;6.472;2022-12-11T15:28:24;35.92;;;16.13;;
52015;SDS011;38032;53.326;6.472;2022-12-11T15:30:57;32.88;;;16.02;;
52015;SDS011;38032;53.326;6.472;2022-12-11T15:33:27;33.67;;;15.57;;
52015;SDS011;38032;53.326;6.472;2022-12-11T15:36:36;37.85;;;17.27;;